createdAt,value
2022-08-23T00:02:23.191Z,0.60
2022-08-23T00:05:07.527Z,0.70
2022-08-23T00:07:38.590Z,0.60
2022-08-23T00:10:08.116Z,0.80
2022-08-23T00:12:35.210Z,0.55
2022-08-23T00:15:02.149Z,0.85
2022-08-23T00:17:33.355Z,0.47
2022-08-23T00:20:00.769Z,0.47
2022-08-23T00:22:27.580Z,0.70
2022-08-23T00:24:54.324Z,0.60
2022-08-23T00:27:21.070Z,0.63
2022-08-23T00:29:51.083Z,0.50
2022-08-23T00:32:25.089Z,0.70
2022-08-23T00:34:52.495Z,0.50
2022-08-23T00:37:20.326Z,0.57
2022-08-23T00:39:47.457Z,0.57
2022-08-23T00:42:45.604Z,0.73
2022-08-23T00:45:34.925Z,0.43
2022-08-23T00:48:03.253Z,0.75
2022-08-23T00:50:33.272Z,0.55
2022-08-23T00:53:22.995Z,0.60
2022-08-23T00:55:54.020Z,0.40
2022-08-23T00:58:21.744Z,0.70
2022-08-23T01:00:51.848Z,0.52
2022-08-23T01:03:20.655Z,0.63
2022-08-23T01:06:11.580Z,0.38
2022-08-23T01:08:41.188Z,0.60
2022-08-23T01:11:19.164Z,0.40
2022-08-23T01:13:52.964Z,0.38
2022-08-23T01:16:34.356Z,0.80
2022-08-23T01:19:04.562Z,0.70
2022-08-23T01:21:54.271Z,0.95
2022-08-23T01:24:30.522Z,0.77
2022-08-23T01:27:11.444Z,0.60
2022-08-23T01:29:39.668Z,0.50
2022-08-23T01:32:10.600Z,0.50
2022-08-23T01:34:38.259Z,0.70
2022-08-23T01:37:13.215Z,0.70
2022-08-23T01:39:40.082Z,1.13
2022-08-23T01:42:08.108Z,0.68
2022-08-23T01:44:35.702Z,0.57
2022-08-23T01:47:02.807Z,0.40
2022-08-23T01:49:29.591Z,1.00
2022-08-23T01:51:56.410Z,0.75
2022-08-23T01:54:23.177Z,0.45
2022-08-23T01:56:50.060Z,1.10
2022-08-23T01:59:16.889Z,1.00
2022-08-23T02:01:43.848Z,1.75
2022-08-23T02:04:10.616Z,0.88
2022-08-23T02:06:37.451Z,0.63
2022-08-23T02:09:05.894Z,1.20
2022-08-23T02:11:45.556Z,1.52
2022-08-23T02:14:17.003Z,1.00
2022-08-23T02:17:03.786Z,1.88
2022-08-23T02:19:33.532Z,2.20
2022-08-23T02:22:00.701Z,1.35
2022-08-23T02:24:27.695Z,1.83
2022-08-23T02:26:57.383Z,2.03
2022-08-23T02:29:25.923Z,2.05
2022-08-23T02:31:53.101Z,2.22
2022-08-23T02:34:20.495Z,2.72
2022-08-23T02:36:49.340Z,2.03
2022-08-23T02:39:17.963Z,2.08
2022-08-23T02:41:44.988Z,2.80
2022-08-23T02:44:12.142Z,2.90
2022-08-23T02:46:40.090Z,3.13
2022-08-23T02:49:07.094Z,2.75
2022-08-23T02:51:35.034Z,2.88
2022-08-23T02:54:02.232Z,2.03
2022-08-23T02:56:29.151Z,2.78
2022-08-23T02:58:56.017Z,2.80
2022-08-23T03:01:29.440Z,2.63
2022-08-23T03:03:58.219Z,2.70
2022-08-23T03:06:26.645Z,2.90
2022-08-23T03:08:54.972Z,3.08
2022-08-23T03:11:22.484Z,3.10
2022-08-23T03:13:50.718Z,3.30
2022-08-23T03:16:19.076Z,3.30
2022-08-23T03:18:46.597Z,3.17
2022-08-23T03:21:13.666Z,3.20
2022-08-23T03:23:41.098Z,2.83
2022-08-23T03:26:10.665Z,3.35
2022-08-23T03:28:39.593Z,3.60
2022-08-23T03:31:07.996Z,2.72
2022-08-23T03:33:35.083Z,4.30
2022-08-23T03:36:06.352Z,3.80
2022-08-23T03:38:34.217Z,3.10
2022-08-23T03:41:01.533Z,2.78
2022-08-23T03:43:28.700Z,3.83
2022-08-23T03:45:55.521Z,3.40
2022-08-23T03:48:22.545Z,2.95
2022-08-23T03:50:49.328Z,2.67
2022-08-23T03:53:16.372Z,3.10
2022-08-23T03:55:44.488Z,3.08
2022-08-23T03:58:12.000Z,3.22
2022-08-23T04:00:39.184Z,3.47
2022-08-23T04:03:05.984Z,3.17
2022-08-23T04:05:32.899Z,4.05
2022-08-23T04:08:01.629Z,3.08
2022-08-23T04:10:28.565Z,3.97
2022-08-23T04:12:55.391Z,2.92
2022-08-23T04:15:22.613Z,3.53
2022-08-23T04:17:49.630Z,2.92
2022-08-23T04:20:16.817Z,2.80
2022-08-23T04:22:45.901Z,2.58
2022-08-23T04:25:33.889Z,2.00
2022-08-23T04:27:59.846Z,2.42
2022-08-23T04:30:27.202Z,2.17
2022-08-23T04:32:53.935Z,2.30
2022-08-23T04:35:22.507Z,2.55
2022-08-23T04:37:49.351Z,2.25
2022-08-23T04:40:35.000Z,2.17
2022-08-23T04:43:02.468Z,2.55
2022-08-23T04:45:29.860Z,2.00
2022-08-23T04:47:56.863Z,2.20
2022-08-23T04:50:23.777Z,1.70
2022-08-23T04:52:50.617Z,1.88
2022-08-23T04:55:17.487Z,1.80
2022-08-23T04:57:44.766Z,2.50
2022-08-23T05:00:13.594Z,2.70
2022-08-23T05:02:40.656Z,3.00
2022-08-23T05:05:08.500Z,2.05
2022-08-23T05:07:41.602Z,2.10
2022-08-23T05:10:11.369Z,2.85
2022-08-23T05:12:38.120Z,2.20
2022-08-23T05:15:05.687Z,2.22
2022-08-23T05:17:32.429Z,2.40
2022-08-23T05:19:59.207Z,2.72
2022-08-23T05:22:26.052Z,2.92
2022-08-23T05:24:52.860Z,3.60
2022-08-23T05:27:19.622Z,3.08
2022-08-23T05:29:47.208Z,2.75
2022-08-23T05:32:13.969Z,3.05
2022-08-23T05:34:40.792Z,4.03
2022-08-23T05:37:07.541Z,2.65
2022-08-23T05:39:36.237Z,3.33
2022-08-23T05:42:05.364Z,3.17
2022-08-23T05:44:36.230Z,2.92
2022-08-23T05:47:10.278Z,2.72
2022-08-23T05:49:38.446Z,3.25
2022-08-23T05:52:06.863Z,3.83
2022-08-23T05:54:34.366Z,2.50
2022-08-23T05:57:01.174Z,2.40
2022-08-23T05:59:28.010Z,2.50
2022-08-23T06:01:54.758Z,2.90
2022-08-23T06:04:22.038Z,2.88
2022-08-23T06:06:49.396Z,2.92
2022-08-23T06:09:18.528Z,2.70
2022-08-23T06:11:47.217Z,2.45
2022-08-23T06:14:14.825Z,3.25
2022-08-23T06:16:45.737Z,3.45
2022-08-23T06:19:14.222Z,2.67
2022-08-23T06:21:42.366Z,2.63
2022-08-23T06:24:09.241Z,3.20
2022-08-23T06:26:39.696Z,4.38
2022-08-23T06:29:14.572Z,2.90
2022-08-23T06:31:47.126Z,3.33
2022-08-23T06:34:19.370Z,3.75
2022-08-23T06:36:48.708Z,3.67
2022-08-23T06:39:17.178Z,3.22
2022-08-23T06:41:44.689Z,3.25
2022-08-23T06:44:12.192Z,4.57
2022-08-23T06:46:39.069Z,3.33
2022-08-23T06:49:07.489Z,4.05
2022-08-23T06:51:36.743Z,3.25
2022-08-23T06:54:08.337Z,4.78
2022-08-23T06:56:37.124Z,4.77
2022-08-23T06:59:06.527Z,3.85
2022-08-23T07:01:46.615Z,3.75
2022-08-23T07:04:16.636Z,3.60
2022-08-23T07:06:43.933Z,3.75
2022-08-23T07:09:10.875Z,3.88
2022-08-23T07:11:39.440Z,4.32
2022-08-23T07:14:10.344Z,4.15
2022-08-23T07:16:43.407Z,4.43
2022-08-23T07:19:10.457Z,4.82
2022-08-23T07:21:38.210Z,4.85
2022-08-23T07:24:05.294Z,5.13
2022-08-23T07:26:32.625Z,5.78
2022-08-23T07:28:59.426Z,4.55
2022-08-23T07:31:31.767Z,4.57
2022-08-23T07:36:28.038Z,4.72
2022-08-23T07:38:56.235Z,4.40
2022-08-23T07:41:25.235Z,4.40
2022-08-23T07:43:52.031Z,4.40
2022-08-23T07:46:18.865Z,4.57
2022-08-23T07:48:54.990Z,3.63
2022-08-23T07:51:22.347Z,3.88
2022-08-23T07:53:49.113Z,4.43
2022-08-23T07:56:17.629Z,3.70
2022-08-23T07:58:44.501Z,2.85
2022-08-23T08:01:22.150Z,2.97
2022-08-23T08:03:54.708Z,2.63
2022-08-23T08:09:00.238Z,2.47
2022-08-23T08:11:34.500Z,2.30
2022-08-23T08:14:07.742Z,1.90
2022-08-23T08:19:07.820Z,1.45
2022-08-23T08:21:36.196Z,2.20
2022-08-23T08:24:07.965Z,1.93
2022-08-23T08:26:34.855Z,1.20
2022-08-23T08:29:01.709Z,1.88
2022-08-23T08:31:28.704Z,14.23
2022-08-23T08:33:55.540Z,2.20
2022-08-23T08:36:36.471Z,2.25
2022-08-23T08:39:10.656Z,1.98
2022-08-23T08:42:14.897Z,1.55
2022-08-23T08:45:00.631Z,2.67
2022-08-23T08:47:34.214Z,2.42
2022-08-23T08:50:06.533Z,1.90
2022-08-23T08:52:37.785Z,1.50
2022-08-23T08:55:13.916Z,1.65
2022-08-23T08:57:44.912Z,1.67
2022-08-23T09:00:17.032Z,2.63
2022-08-23T09:02:45.301Z,2.28
2022-08-23T09:05:18.956Z,1.58
2022-08-23T09:08:28.787Z,2.08
2022-08-23T09:11:10.961Z,2.05
2022-08-23T09:14:10.082Z,2.25
2022-08-23T09:16:42.475Z,1.98
2022-08-23T09:21:58.190Z,2.28
2022-08-23T09:24:25.856Z,1.95
2022-08-23T09:26:56.245Z,1.70
2022-08-23T09:29:32.596Z,2.33
2022-08-23T09:32:02.680Z,2.33
2022-08-23T09:34:47.643Z,2.17
2022-08-23T09:37:25.191Z,2.35
2022-08-23T09:40:12.883Z,2.30
2022-08-23T09:42:41.277Z,1.55
2022-08-23T09:45:35.583Z,2.83
2022-08-23T09:48:04.314Z,2.10
2022-08-23T09:50:49.552Z,1.90
2022-08-23T09:53:27.091Z,1.55
2022-08-23T09:55:57.851Z,1.90
2022-08-23T09:58:34.333Z,1.70
2022-08-23T10:01:07.295Z,1.83
2022-08-23T10:03:34.177Z,1.80
2022-08-23T10:06:02.366Z,2.42
2022-08-23T10:08:42.341Z,1.80
2022-08-23T10:11:10.104Z,1.83
2022-08-23T10:13:41.832Z,1.98
2022-08-23T10:16:37.030Z,1.60
2022-08-23T10:19:23.484Z,1.30
2022-08-23T10:22:05.660Z,2.00
2022-08-23T10:24:45.011Z,1.77
2022-08-23T10:27:48.498Z,1.70
2022-08-23T10:30:20.872Z,1.25
2022-08-23T10:35:49.514Z,0.90
2022-08-23T10:38:31.035Z,1.42
2022-08-23T10:41:03.647Z,1.20
2022-08-23T10:44:00.645Z,1.45
2022-08-23T10:46:31.018Z,0.80
2022-08-23T10:49:00.354Z,1.20
2022-08-23T10:51:40.580Z,1.02
2022-08-23T10:56:48.527Z,1.17
2022-08-23T10:59:23.985Z,1.35
2022-08-23T11:02:04.837Z,0.77
2022-08-23T11:04:49.540Z,1.15
2022-08-23T11:07:20.408Z,1.02
2022-08-23T11:10:00.834Z,1.00
2022-08-23T11:12:31.795Z,0.93
2022-08-23T11:15:44.539Z,1.00
2022-08-23T11:18:38.096Z,0.98
2022-08-23T11:21:07.854Z,0.95
2022-08-23T11:23:54.409Z,1.20
2022-08-23T11:26:31.280Z,1.02
2022-08-23T11:29:00.841Z,1.10
2022-08-23T11:31:34.989Z,0.77
2022-08-23T11:34:28.975Z,0.88
2022-08-23T11:37:30.675Z,1.30
2022-08-23T11:40:00.368Z,1.00
2022-08-23T11:42:51.758Z,1.17
2022-08-23T11:48:15.400Z,1.20
2022-08-23T11:50:57.436Z,1.08
2022-08-23T11:53:51.803Z,1.00
2022-08-23T11:56:46.188Z,0.60
2022-08-23T11:59:51.163Z,1.40
2022-08-23T12:02:43.860Z,1.45
2022-08-23T12:05:22.780Z,0.93
2022-08-23T12:08:01.590Z,1.00
2022-08-23T12:10:44.056Z,1.27
2022-08-23T12:13:20.490Z,1.52
2022-08-23T12:16:17.474Z,0.93
2022-08-23T12:18:48.049Z,1.20
2022-08-23T12:21:38.813Z,1.00
2022-08-23T12:24:35.582Z,0.95
2022-08-23T12:27:08.285Z,1.25
2022-08-23T12:29:59.381Z,1.00
2022-08-23T12:32:45.290Z,0.90
2022-08-23T12:35:30.756Z,0.90
2022-08-23T12:38:21.461Z,0.80
2022-08-23T12:40:54.648Z,1.38
2022-08-23T12:43:27.936Z,1.10
2022-08-23T12:46:02.207Z,0.95
2022-08-23T12:48:32.632Z,0.80
2022-08-23T12:51:06.395Z,1.27
2022-08-23T12:53:44.495Z,0.55
2022-08-23T12:56:22.725Z,0.52
2022-08-23T12:59:04.929Z,0.70
2022-08-23T13:01:36.702Z,0.93
2022-08-23T13:04:11.621Z,1.08
2022-08-23T13:06:51.048Z,0.55
2022-08-23T13:09:27.053Z,0.98
2022-08-23T13:11:54.537Z,0.90
2022-08-23T13:14:35.326Z,0.80
2022-08-23T13:17:25.011Z,0.60
2022-08-23T13:20:15.294Z,0.93
2022-08-23T13:23:02.640Z,0.80
2022-08-23T13:25:38.386Z,0.90
2022-08-23T13:28:28.800Z,0.55
2022-08-23T13:31:10.306Z,0.60
2022-08-23T13:33:37.333Z,0.77
2022-08-23T13:36:19.697Z,0.80
2022-08-23T13:38:48.781Z,0.70
2022-08-23T13:41:32.774Z,0.55
2022-08-23T13:44:07.991Z,1.10
2022-08-23T13:46:41.233Z,0.50
2022-08-23T13:49:15.946Z,0.30
2022-08-23T13:52:35.935Z,0.70
2022-08-23T13:54:52.940Z,0.40
2022-08-23T13:57:21.697Z,0.40
2022-08-23T13:59:52.300Z,0.57
2022-08-23T14:02:21.982Z,0.40
2022-08-23T14:04:49.392Z,0.40
2022-08-23T14:07:16.615Z,0.55
2022-08-23T14:09:43.698Z,0.40
2022-08-23T14:12:17.026Z,0.60
2022-08-23T14:14:46.121Z,0.40
2022-08-23T14:17:16.986Z,0.30
2022-08-23T14:20:32.907Z,0.40
2022-08-23T14:22:36.195Z,0.30
2022-08-23T14:25:03.810Z,0.57
2022-08-23T14:27:30.665Z,0.50
2022-08-23T14:29:57.863Z,0.50
2022-08-23T14:32:24.685Z,0.40
2022-08-23T14:34:52.549Z,0.63
2022-08-23T14:38:02.792Z,0.82
2022-08-23T14:40:06.833Z,0.47
2022-08-23T14:42:33.632Z,0.50
2022-08-23T14:45:00.849Z,0.32
2022-08-23T14:47:28.100Z,0.50
2022-08-23T14:49:54.988Z,0.50
2022-08-23T14:52:22.502Z,0.57
2022-08-23T14:54:50.189Z,0.60
2022-08-23T14:57:17.128Z,0.60
2022-08-23T14:59:44.079Z,0.47
2022-08-23T15:02:13.598Z,0.65
2022-08-23T15:04:41.710Z,0.80
2022-08-23T15:07:24.028Z,0.80
2022-08-23T15:09:54.602Z,0.73
2022-08-23T15:15:13.394Z,1.15
2022-08-23T15:17:56.023Z,0.63
2022-08-23T15:20:28.537Z,0.40
2022-08-23T15:22:56.247Z,0.40
2022-08-23T15:25:25.500Z,0.50
2022-08-23T15:27:52.531Z,0.90
2022-08-23T15:30:19.577Z,0.73
2022-08-23T15:32:52.541Z,0.85
2022-08-23T15:35:25.029Z,0.75
2022-08-23T15:37:54.555Z,0.90
2022-08-23T15:40:21.921Z,0.68
2022-08-23T15:42:48.992Z,0.95
2022-08-23T15:45:15.753Z,0.80
2022-08-23T15:47:49.571Z,0.95
2022-08-23T15:50:24.705Z,1.02
2022-08-23T15:52:52.852Z,0.82
2022-08-23T15:55:20.015Z,1.02
2022-08-23T15:57:51.877Z,0.70
2022-08-23T16:00:21.657Z,0.60
2022-08-23T16:03:18.374Z,0.77
2022-08-23T16:05:38.517Z,0.80
2022-08-23T16:08:07.151Z,1.27
2022-08-23T16:10:35.054Z,0.60
2022-08-23T16:13:03.468Z,0.70
2022-08-23T16:15:30.542Z,0.80
2022-08-23T16:17:57.369Z,0.70
2022-08-23T16:20:24.223Z,0.90
2022-08-23T16:22:51.697Z,1.00
2022-08-23T16:25:18.533Z,0.50
2022-08-23T16:27:45.284Z,0.90
2022-08-23T16:30:13.317Z,0.88
2022-08-23T16:32:40.169Z,1.10
2022-08-23T16:35:07.802Z,1.10
2022-08-23T16:37:36.135Z,1.30
2022-08-23T16:40:06.468Z,0.98
2022-08-23T16:42:33.332Z,1.13
2022-08-23T16:45:00.813Z,0.85
2022-08-23T16:47:27.831Z,0.88
2022-08-23T16:49:55.721Z,1.10
2022-08-23T16:52:25.942Z,1.30
2022-08-23T16:55:06.943Z,1.23
2022-08-23T16:57:34.105Z,1.15
2022-08-23T17:00:00.998Z,0.90
2022-08-23T17:02:31.991Z,1.00
2022-08-23T17:04:59.044Z,1.30
2022-08-23T17:07:26.432Z,1.45
2022-08-23T17:09:53.484Z,1.27
2022-08-23T17:12:20.554Z,1.80
2022-08-23T17:14:49.201Z,1.33
2022-08-23T17:17:16.415Z,1.70
2022-08-23T17:19:44.501Z,1.17
2022-08-23T17:22:12.089Z,1.45
2022-08-23T17:24:39.109Z,1.10
2022-08-23T17:27:06.823Z,1.00
2022-08-23T17:29:37.370Z,1.00
2022-08-23T17:32:05.160Z,1.00
2022-08-23T17:34:32.089Z,1.00
2022-08-23T17:36:59.744Z,0.82
2022-08-23T17:39:29.184Z,1.55
2022-08-23T17:41:57.859Z,1.45
2022-08-23T17:44:24.850Z,1.27
2022-08-23T17:46:51.971Z,1.33
2022-08-23T17:49:19.191Z,1.75
2022-08-23T17:51:46.434Z,1.48
2022-08-23T17:54:15.832Z,1.45
2022-08-23T17:56:49.871Z,1.50
2022-08-23T17:59:18.982Z,1.63
2022-08-23T18:01:45.870Z,1.25
2022-08-23T18:04:13.080Z,2.45
2022-08-23T18:06:39.976Z,2.42
2022-08-23T18:09:07.794Z,1.95
2022-08-23T18:11:35.358Z,1.70
2022-08-23T18:14:02.359Z,1.52
2022-08-23T18:16:35.210Z,0.93
2022-08-23T18:19:04.791Z,1.80
2022-08-23T18:21:31.711Z,2.25
2022-08-23T18:23:59.061Z,2.00
2022-08-23T18:26:45.297Z,2.15
2022-08-23T18:29:14.342Z,1.77
2022-08-23T18:31:43.237Z,2.83
2022-08-23T18:34:11.118Z,1.60
2022-08-23T18:36:38.417Z,1.35
2022-08-23T18:39:07.914Z,2.10
2022-08-23T18:41:35.143Z,2.00
2022-08-23T18:44:03.533Z,1.77
2022-08-23T18:46:34.237Z,1.77
2022-08-23T18:49:01.365Z,1.65
2022-08-23T18:51:28.643Z,1.60
2022-08-23T18:53:55.663Z,2.03
2022-08-23T18:56:22.533Z,1.40
2022-08-23T18:58:49.433Z,1.10
2022-08-23T19:01:20.403Z,1.30
2022-08-23T19:03:47.603Z,1.80
2022-08-23T19:06:14.800Z,2.03
2022-08-23T19:08:41.585Z,2.17
2022-08-23T19:11:08.537Z,1.67
2022-08-23T19:13:35.573Z,1.52
2022-08-23T19:16:03.327Z,1.27
2022-08-23T19:18:30.360Z,1.27
2022-08-23T19:20:57.143Z,2.17
2022-08-23T19:23:23.964Z,1.20
2022-08-23T19:25:50.808Z,1.20
2022-08-23T19:28:19.638Z,1.13
2022-08-23T19:30:49.161Z,1.92
2022-08-23T19:33:16.505Z,1.48
2022-08-23T19:35:43.299Z,1.10
2022-08-23T19:38:10.392Z,1.10
2022-08-23T19:40:37.275Z,1.15
2022-08-23T19:43:05.392Z,0.73
2022-08-23T19:45:32.517Z,1.40
2022-08-23T19:47:59.688Z,1.30
2022-08-23T19:50:27.875Z,0.95
2022-08-23T19:52:54.650Z,1.00
2022-08-23T19:55:21.796Z,0.80
2022-08-23T19:57:52.870Z,1.30
2022-08-23T20:00:20.028Z,1.45
2022-08-23T20:02:48.153Z,0.80
2022-08-23T20:05:15.640Z,0.95
2022-08-23T20:07:42.479Z,1.00
2022-08-23T20:10:11.244Z,1.00
2022-08-23T20:12:38.019Z,1.05
2022-08-23T20:15:06.464Z,1.35
2022-08-23T20:17:33.238Z,1.05
2022-08-23T20:20:00.082Z,1.60
2022-08-23T20:22:45.448Z,1.80
2022-08-23T20:25:12.233Z,1.23
2022-08-23T20:27:39.139Z,1.48
2022-08-23T20:30:07.884Z,1.55
2022-08-23T20:32:35.460Z,1.35
2022-08-23T20:35:04.818Z,1.02
2022-08-23T20:37:31.734Z,1.00
2022-08-23T20:39:58.735Z,1.05
2022-08-23T20:42:26.030Z,1.38
2022-08-23T20:44:52.810Z,1.02
2022-08-23T20:47:19.679Z,0.90
2022-08-23T20:49:46.665Z,1.10
2022-08-23T20:52:13.544Z,1.45
2022-08-23T20:54:40.348Z,1.02
2022-08-23T20:57:07.148Z,1.30
2022-08-23T20:59:33.949Z,1.60
2022-08-23T21:02:00.742Z,1.23
2022-08-23T21:04:30.287Z,1.45
2022-08-23T21:06:57.952Z,0.95
2022-08-23T21:09:29.075Z,1.00
2022-08-23T21:11:56.963Z,1.38
2022-08-23T21:14:23.906Z,1.20
2022-08-23T21:16:50.704Z,1.60
2022-08-23T21:19:17.598Z,1.15
2022-08-23T21:21:44.543Z,1.23
2022-08-23T21:24:11.862Z,1.20
2022-08-23T21:26:38.805Z,1.10
2022-08-23T21:29:07.814Z,1.27
2022-08-23T21:31:35.456Z,1.30
2022-08-23T21:34:02.398Z,1.20
2022-08-23T21:36:29.381Z,1.27
2022-08-23T21:38:56.352Z,0.98
2022-08-23T21:41:38.923Z,1.23
2022-08-23T21:44:11.113Z,1.45
2022-08-23T21:46:38.361Z,1.48
2022-08-23T21:49:06.112Z,1.63
2022-08-23T21:51:34.816Z,1.67
2022-08-23T21:54:02.841Z,1.58
2022-08-23T21:56:30.209Z,1.60
2022-08-23T21:59:01.513Z,1.15
2022-08-23T22:01:30.443Z,1.05
2022-08-23T22:03:57.444Z,1.40
2022-08-23T22:06:24.503Z,1.20
2022-08-23T22:08:51.650Z,1.30
2022-08-23T22:11:18.477Z,1.17
2022-08-23T22:13:45.355Z,1.30
2022-08-23T22:16:12.283Z,1.02
2022-08-23T22:18:39.224Z,1.40
2022-08-23T22:21:06.967Z,1.33
2022-08-23T22:23:36.287Z,1.55
2022-08-23T22:26:07.364Z,1.17
2022-08-23T22:28:36.452Z,1.63
2022-08-23T22:31:05.968Z,2.00
2022-08-23T22:33:33.266Z,1.70
2022-08-23T22:36:09.249Z,1.73
2022-08-23T22:38:36.793Z,1.63
2022-08-23T22:41:04.091Z,1.35
2022-08-23T22:43:30.873Z,1.55
2022-08-23T22:46:01.037Z,1.60
2022-08-23T22:48:31.195Z,1.83
2022-08-23T22:51:07.950Z,1.42
2022-08-23T22:53:40.757Z,1.50
2022-08-23T22:56:10.388Z,2.10
2022-08-23T22:58:37.222Z,1.50
2022-08-23T23:01:07.250Z,1.77
2022-08-23T23:03:37.686Z,1.60
2022-08-23T23:06:06.564Z,1.40
2022-08-23T23:08:33.332Z,2.25
2022-08-23T23:11:03.337Z,1.15
2022-08-23T23:13:31.589Z,1.65
2022-08-23T23:16:02.195Z,1.52
2022-08-23T23:18:29.131Z,1.77
2022-08-23T23:21:00.587Z,1.80
2022-08-23T23:23:28.367Z,1.88
2022-08-23T23:25:55.357Z,1.63
2022-08-23T23:28:22.834Z,2.38
2022-08-23T23:30:52.381Z,1.52
2022-08-23T23:33:20.673Z,1.92
2022-08-23T23:35:48.650Z,2.03
2022-08-23T23:38:15.611Z,1.38
2022-08-23T23:40:43.649Z,2.17
2022-08-23T23:43:10.616Z,1.70
2022-08-23T23:45:40.240Z,1.55
2022-08-23T23:48:08.327Z,1.75
2022-08-23T23:50:36.847Z,2.00
2022-08-23T23:53:08.645Z,1.70
2022-08-23T23:55:35.471Z,1.63
2022-08-23T23:58:02.335Z,1.38
